Airfield :
LOGIN :

Register | Disclaimer

   EN    FR    IT 

 










Legend :    VFR   Marginal VFR   IFR   Intensive IFR   Very Intensive IFR
Visi :
Ceiling :
>= 8 km
>= 3000ft
5 to 8 km
1000 to 3000 ft
1500m to 5 km
500 to 1000 ft
800 to 1500m
200 to 500 ft
< 800m
< 200 ft
Symbols :   Thunderstorms  Fog  Heavy snow  Heavy precipitations  Wind > 20 kt
SIGMETs :     Misc.  Thunderstorms  Icing  Turbulence  Mountain Waves  Volcanic Ashes







- Airport Elevation : 357 ft
- IATA code : TUF
- Download approach charts


LFOT - Tours

CURRENT METAR :
  • 241330Z AUTO 18006KT 140V230 CAVOK 25/13 Q1018 NOSIG

EXPIRED METARs :
  • 241300Z AUTO 16005KT CAVOK 24/13 Q1018 NOSIG
  • 241230Z AUTO 16006KT 120V210 CAVOK 24/14 Q1018 NOSIG
  • 241200Z AUTO 13005KT 040V170 CAVOK 25/14 Q1019 NOSIG
  • 241130Z AUTO 14004KT 100V230 CAVOK 24/14 Q1019 NOSIG
  • 241100Z AUTO 14004KT 090V200 CAVOK 23/14 Q1019 NOSIG

TAF TAF LFOT
Valid from the 24 at 12:00 until the 25 at 12:00 UTC


241100Z 2412/2512 15005KT CAVOK
BECMG 2413/2415 23005KT
BECMG 2417/2419 VRB03KT
BECMG 2503/2505 26005KT 9999 -RA SCT005 BKN020
TEMPO 2506/2510 RA BKN003 SCT015TCU BKN020
BECMG 2510/2512 NSW SCT020 BKN040
No reported NOTAMs for that airfield.



MET'MAP, your aeronautical weather chart ! - Copyright ORBIFLY December 2007 - Disclaimer

ORBIFLY MET'MAP TEAM :

Programming & Development : Alexandra Zaïnal
Concept & Development : Baudouin d'Aumeries
Co-Development & Prog : Marc-Olivier Méhu
Technical & hardware support : Manuel Goepfert

Contact : metmap@orbifly.com




SOURCES & CREDITS :

   NOAA